Time;durP1;ratioP1;P1;durP2;ratioP2;P2;SDS_P1;SDS_P2;PMS_P1;PMS_P2;Temp;Humidity;BMP_temperature;BMP_pressure;BME280_temperature;BME280_humidity;BME280_pressure;Samples;Min_cycle;Max_cycle;Signal;HPM_P1;HPM_P2
2022/01/02 00:02:21;;;;;;;6.53;4.10;;;11.40;99.90;;;;;;4953519;28;20251;-61
2022/01/02 00:04:56;;;;;;;6.57;4.50;;;11.40;99.90;;;;;;4953298;28;20237;-61
2022/01/02 00:07:27;;;;;;;5.67;4.53;;;11.40;99.90;;;;;;4953504;28;20268;-61
2022/01/02 00:09:56;;;;;;;5.57;4.20;;;11.40;99.90;;;;;;4956587;28;20315;-61
2022/01/02 00:12:26;;;;;;;7.43;4.60;;;11.40;99.90;;;;;;4972652;28;20239;-61
2022/01/02 00:14:56;;;;;;;6.97;4.27;;;11.30;99.90;;;;;;4972490;28;20318;-61
2022/01/02 00:17:24;;;;;;;7.30;4.40;;;11.30;99.90;;;;;;4972556;28;20702;-61
2022/01/02 00:19:55;;;;;;;6.87;4.37;;;11.30;99.90;;;;;;4973795;28;20236;-62
2022/01/02 00:22:30;;;;;;;7.30;4.93;;;11.30;99.90;;;;;;4970639;28;20257;-61
2022/01/02 00:24:58;;;;;;;7.50;4.77;;;11.20;99.90;;;;;;4954202;28;20240;-60
2022/01/02 00:27:29;;;;;;;7.43;4.70;;;11.20;99.90;;;;;;4972268;28;20240;-62
2022/01/02 00:29:58;;;;;;;6.53;4.97;;;11.20;99.90;;;;;;4970835;28;20243;-61
2022/01/02 00:32:28;;;;;;;6.63;5.13;;;11.20;99.90;;;;;;4970693;28;20711;-61
2022/01/02 00:34:59;;;;;;;8.23;5.60;;;11.10;99.90;;;;;;4971908;28;20260;-61
2022/01/02 00:37:28;;;;;;;6.77;5.17;;;11.10;99.90;;;;;;4972198;28;20708;-61
2022/01/02 00:39:56;;;;;;;8.67;5.60;;;11.10;99.90;;;;;;4972099;28;20647;-61
2022/01/02 00:42:30;;;;;;;6.57;4.73;;;11.10;99.90;;;;;;4972041;28;20641;-61
2022/01/02 00:45:05;;;;;;;6.70;4.90;;;11.10;99.90;;;;;;4970867;28;20610;-61
2022/01/02 00:47:39;;;;;;;9.03;5.37;;;11.10;99.90;;;;;;4969569;28;20271;-63
2022/01/02 00:50:11;;;;;;;7.10;4.60;;;11.00;99.90;;;;;;4969291;28;20265;-61
2022/01/02 00:52:40;;;;;;;8.07;5.33;;;11.10;99.90;;;;;;4971917;28;20239;-60
2022/01/02 00:55:10;;;;;;;5.97;4.67;;;11.00;99.90;;;;;;4971913;28;20243;-62
2022/01/02 00:57:41;;;;;;;7.13;4.57;;;11.00;99.90;;;;;;4971686;28;20242;-61
2022/01/02 01:00:12;;;;;;;8.13;5.23;;;11.00;99.90;;;;;;4970379;28;20233;-61
2022/01/02 01:02:46;;;;;;;6.43;4.70;;;11.00;99.90;;;;;;4971966;28;20243;-61
2022/01/02 01:05:20;;;;;;;7.73;5.17;;;11.00;99.90;;;;;;4971755;28;20226;-61
2022/01/02 01:07:50;;;;;;;7.37;5.00;;;11.10;99.90;;;;;;4970441;28;20269;-61
2022/01/02 01:10:19;;;;;;;7.13;5.10;;;11.00;99.90;;;;;;4971803;28;20240;-61
2022/01/02 01:12:51;;;;;;;5.97;5.10;;;11.00;99.90;;;;;;4971839;28;20267;-61
2022/01/02 01:15:21;;;;;;;7.23;5.50;;;11.00;99.90;;;;;;4970295;28;20775;-61
2022/01/02 01:17:52;;;;;;;8.53;5.57;;;11.00;99.90;;;;;;4970954;28;20238;-61
2022/01/02 01:20:22;;;;;;;8.77;5.83;;;11.00;99.90;;;;;;4964939;28;20262;-61
2022/01/02 01:22:51;;;;;;;10.10;5.60;;;11.00;99.90;;;;;;4971836;28;20344;-60
2022/01/02 01:25:22;;;;;;;8.90;5.57;;;11.00;99.90;;;;;;4971559;28;20310;-61
2022/01/02 01:27:51;;;;;;;8.33;5.90;;;11.00;99.90;;;;;;4970452;28;20323;-61
2022/01/02 01:30:22;;;;;;;7.40;5.10;;;11.00;99.90;;;;;;4971726;28;20657;-61
2022/01/02 01:32:52;;;;;;;6.77;5.77;;;11.00;99.90;;;;;;4971758;28;20295;-61
2022/01/02 01:35:23;;;;;;;7.03;5.43;;;11.00;99.90;;;;;;4971640;28;20247;-61
2022/01/02 01:37:51;;;;;;;10.97;6.13;;;11.00;99.90;;;;;;4971848;28;20314;-61
2022/01/02 01:40:20;;;;;;;9.57;5.97;;;11.00;99.90;;;;;;4970120;28;20233;-61
2022/01/02 01:42:58;;;;;;;9.10;6.13;;;10.90;99.90;;;;;;4971508;28;20259;-60
2022/01/02 01:45:31;;;;;;;7.97;6.27;;;11.00;99.90;;;;;;4970140;28;20240;-61
2022/01/02 01:48:06;;;;;;;8.43;6.00;;;10.90;99.90;;;;;;4969790;28;20259;-61
2022/01/02 01:50:40;;;;;;;8.33;6.40;;;11.00;99.90;;;;;;4967069;28;20241;-61
2022/01/02 01:53:12;;;;;;;7.40;6.07;;;11.00;99.90;;;;;;4970288;28;20243;-61
2022/01/02 01:55:42;;;;;;;10.40;6.47;;;10.90;99.90;;;;;;4969204;28;20243;-61
2022/01/02 01:58:11;;;;;;;9.17;6.47;;;10.90;99.90;;;;;;4970001;28;20244;-61
2022/01/02 02:00:42;;;;;;;9.03;6.03;;;10.90;99.90;;;;;;4969575;28;20236;-61
2022/01/02 02:03:26;;;;;;;9.83;6.63;;;10.90;99.90;;;;;;4969763;28;20237;-61
2022/01/02 02:05:55;;;;;;;11.10;6.73;;;10.90;99.90;;;;;;4971446;28;20676;-61
2022/01/02 02:08:26;;;;;;;9.33;6.67;;;10.90;99.90;;;;;;4970120;28;20245;-61
2022/01/02 02:10:57;;;;;;;7.90;6.70;;;10.90;99.90;;;;;;4971332;28;20232;-61
2022/01/02 02:13:27;;;;;;;9.27;6.90;;;10.90;99.90;;;;;;4973441;28;20697;-61
2022/01/02 02:16:00;;;;;;;10.10;7.33;;;10.90;99.90;;;;;;4972377;28;20248;-61
2022/01/02 02:18:29;;;;;;;10.10;6.73;;;11.00;99.90;;;;;;4970862;28;20240;-61
2022/01/02 02:20:59;;;;;;;9.23;7.33;;;11.00;99.90;;;;;;4962625;28;20256;-61
2022/01/02 02:23:30;;;;;;;7.83;6.80;;;11.00;99.90;;;;;;4973490;28;20318;-61
2022/01/02 02:25:59;;;;;;;10.50;7.70;;;10.90;99.90;;;;;;4973183;28;20235;-61
2022/01/02 02:28:27;;;;;;;8.50;6.67;;;10.90;99.90;;;;;;4973114;28;20236;-61
2022/01/02 02:30:59;;;;;;;11.03;7.83;;;11.00;99.90;;;;;;4973166;28;20392;-60
2022/01/02 02:33:28;;;;;;;11.53;8.40;;;10.90;99.90;;;;;;4973426;28;20287;-61
2022/01/02 02:35:56;;;;;;;10.37;7.77;;;10.90;99.90;;;;;;4967627;28;20362;-61
2022/01/02 02:38:26;;;;;;;12.57;8.43;;;10.90;99.90;;;;;;4972041;28;20240;-62
2022/01/02 02:40:59;;;;;;;10.23;8.47;;;10.90;99.90;;;;;;4967630;28;20233;-61
2022/01/02 02:43:32;;;;;;;11.80;8.40;;;10.90;99.90;;;;;;4972040;28;20232;-61
2022/01/02 02:48:59;;;;;;;13.07;8.57;;;10.90;99.90;;;;;;4953585;28;20269;-61
2022/01/02 02:51:34;;;;;;;12.50;8.87;;;10.90;99.90;;;;;;4968654;28;20715;-61
2022/01/02 02:54:05;;;;;;;10.63;8.90;;;10.80;99.90;;;;;;4973137;28;20285;-61
2022/01/02 02:56:43;;;;;;;10.30;9.10;;;10.80;99.90;;;;;;4973645;28;20315;-61
2022/01/02 02:59:12;;;;;;;13.93;8.63;;;10.80;99.90;;;;;;4972395;28;20244;-61
2022/01/02 03:01:42;;;;;;;12.50;8.67;;;10.80;99.90;;;;;;4973520;28;20231;-61
2022/01/02 03:04:11;;;;;;;13.53;9.53;;;10.80;99.90;;;;;;4973861;28;20235;-61
2022/01/02 03:06:40;;;;;;;14.17;9.20;;;10.80;99.90;;;;;;4971816;28;20265;-62
2022/01/02 03:09:12;;;;;;;14.20;9.60;;;10.80;99.90;;;;;;4985137;28;20335;-61
2022/01/02 03:11:42;;;;;;;11.37;8.90;;;10.80;99.90;;;;;;4970122;28;20246;-61
2022/01/02 03:14:12;;;;;;;14.83;10.10;;;10.80;99.90;;;;;;4972419;28;20283;-61
2022/01/02 03:16:43;;;;;;;17.17;10.37;;;10.80;99.90;;;;;;4971609;28;20237;-61
2022/01/02 03:19:11;;;;;;;17.10;10.77;;;10.80;99.90;;;;;;4972467;28;20236;-61
2022/01/02 03:21:39;;;;;;;14.20;9.97;;;10.80;99.90;;;;;;4971133;28;20320;-61
2022/01/02 03:24:09;;;;;;;13.47;9.60;;;10.70;99.90;;;;;;4972071;28;20236;-61
2022/01/02 03:26:37;;;;;;;16.50;10.27;;;10.70;99.90;;;;;;4973310;28;20324;-61
2022/01/02 03:29:06;;;;;;;13.13;9.93;;;10.70;99.90;;;;;;4972188;28;20235;-61
2022/01/02 03:31:34;;;;;;;14.47;10.47;;;10.80;99.90;;;;;;4973089;28;20323;-61
2022/01/02 03:34:03;;;;;;;13.40;10.03;;;10.80;99.90;;;;;;4973896;28;20235;-61
2022/01/02 03:36:32;;;;;;;16.40;10.87;;;10.70;99.90;;;;;;4971254;28;20600;-61
2022/01/02 03:39:01;;;;;;;14.23;10.07;;;10.70;99.90;;;;;;4967002;28;20243;-61
2022/01/02 03:41:30;;;;;;;12.87;10.27;;;10.70;99.90;;;;;;4965500;28;20293;-61
2022/01/02 03:44:00;;;;;;;15.47;11.67;;;10.70;99.90;;;;;;4973275;28;20239;-61
2022/01/02 03:46:28;;;;;;;15.93;11.10;;;10.70;99.90;;;;;;4971533;28;20235;-61
2022/01/02 03:48:57;;;;;;;14.47;11.20;;;10.70;99.90;;;;;;4971681;28;20739;-61
2022/01/02 03:51:26;;;;;;;15.20;11.33;;;10.70;99.90;;;;;;4972806;28;20255;-61
2022/01/02 03:53:55;;;;;;;16.90;11.97;;;10.70;99.90;;;;;;4973158;28;20244;-61
2022/01/02 03:56:25;;;;;;;15.80;11.07;;;10.70;99.90;;;;;;4971382;28;20283;-60
2022/01/02 03:58:55;;;;;;;15.43;11.43;;;10.70;99.90;;;;;;4973205;28;20260;-61
2022/01/02 04:01:23;;;;;;;14.23;10.70;;;10.70;99.90;;;;;;4973745;28;20243;-61
2022/01/02 04:03:51;;;;;;;15.87;11.37;;;10.70;99.90;;;;;;4974340;28;20196;-61
2022/01/02 04:06:20;;;;;;;14.80;11.67;;;10.70;99.90;;;;;;4972721;28;20688;-61
2022/01/02 04:08:48;;;;;;;15.83;12.03;;;10.70;99.90;;;;;;4972585;28;20241;-61
2022/01/02 04:11:16;;;;;;;16.90;12.20;;;10.70;99.90;;;;;;4972589;28;20739;-61
2022/01/02 04:13:46;;;;;;;15.87;12.83;;;10.70;99.90;;;;;;4972584;28;20243;-61
2022/01/02 04:16:16;;;;;;;15.53;12.60;;;10.70;99.90;;;;;;4972622;28;20260;-60
2022/01/02 04:18:44;;;;;;;18.07;12.97;;;10.70;99.90;;;;;;4971195;28;20250;-61
2022/01/02 04:21:13;;;;;;;18.07;13.50;;;10.70;99.90;;;;;;4970884;28;20310;-61
2022/01/02 04:23:41;;;;;;;19.77;13.80;;;10.70;99.90;;;;;;4970982;28;20318;-61
2022/01/02 04:26:11;;;;;;;16.60;13.80;;;10.70;99.90;;;;;;4970760;28;20660;-61
2022/01/02 04:28:39;;;;;;;18.83;14.37;;;10.70;99.90;;;;;;4970825;28;20318;-61
2022/01/02 04:31:09;;;;;;;15.63;12.17;;;10.70;99.90;;;;;;4970788;28;20729;-61
2022/01/02 04:33:48;;;;;;;17.33;14.13;;;10.70;99.90;;;;;;4782272;28;10000937;-63
2022/01/02 04:36:19;;;;;;;15.93;14.02;;;10.80;99.90;;;;;;1364505;28;10002043;-61
2022/01/02 04:38:47;;;;;;;16.53;13.80;;;10.70;99.90;;;;;;4972073;28;20240;-61
2022/01/02 04:41:16;;;;;;;17.73;14.27;;;10.70;99.90;;;;;;4970693;28;20291;-61
2022/01/02 04:43:44;;;;;;;20.00;14.53;;;10.70;99.90;;;;;;4972076;28;20243;-61
2022/01/02 04:46:12;;;;;;;18.83;14.27;;;10.70;99.90;;;;;;4971910;28;20715;-61
2022/01/02 04:48:41;;;;;;;18.53;14.17;;;10.70;99.90;;;;;;4972048;28;20242;-61
2022/01/02 04:51:11;;;;;;;18.57;14.03;;;10.70;99.90;;;;;;4971981;28;20323;-61
2022/01/02 04:53:46;;;;;;;16.93;14.40;;;10.70;99.90;;;;;;4970561;28;20253;-61
2022/01/02 04:56:16;;;;;;;17.40;13.83;;;10.70;99.90;;;;;;4971765;28;20247;-61
2022/01/02 04:58:49;;;;;;;16.93;14.37;;;10.70;99.90;;;;;;4970487;28;20257;-61
2022/01/02 05:01:17;;;;;;;16.83;14.77;;;10.70;99.90;;;;;;4970533;28;20251;-60
2022/01/02 05:03:46;;;;;;;22.47;14.70;;;10.70;99.90;;;;;;4969751;28;20297;-61
2022/01/02 05:06:15;;;;;;;20.40;15.03;;;10.80;99.90;;;;;;4971287;28;20249;-61
2022/01/02 05:08:46;;;;;;;17.60;14.77;;;10.70;99.90;;;;;;4951104;28;20244;-61
2022/01/02 05:11:16;;;;;;;19.40;15.67;;;10.60;99.90;;;;;;4964758;28;20262;-61
2022/01/02 05:13:45;;;;;;;18.77;14.90;;;10.70;99.90;;;;;;4970294;28;20293;-61
2022/01/02 05:16:13;;;;;;;21.37;15.57;;;10.70;99.90;;;;;;4970402;28;20767;-61
2022/01/02 05:18:42;;;;;;;18.73;13.80;;;10.70;99.90;;;;;;4970300;28;20715;-60
2022/01/02 05:21:11;;;;;;;18.90;14.63;;;10.70;99.90;;;;;;4970224;28;20245;-61
2022/01/02 05:23:41;;;;;;;23.47;14.93;;;10.70;99.90;;;;;;4970359;28;20699;-61
2022/01/02 05:26:09;;;;;;;18.67;15.23;;;10.70;99.90;;;;;;4970114;28;20240;-61
2022/01/02 05:28:37;;;;;;;21.30;16.00;;;10.70;99.90;;;;;;4969429;28;20258;-61
2022/01/02 05:31:07;;;;;;;19.50;15.03;;;10.60;99.90;;;;;;4968962;28;20330;-61
2022/01/02 05:33:36;;;;;;;17.80;13.70;;;10.60;99.90;;;;;;4968257;28;20358;-61
2022/01/02 05:36:05;;;;;;;18.23;14.77;;;10.70;99.90;;;;;;4960480;28;20604;-61
2022/01/02 05:38:34;;;;;;;18.80;13.87;;;10.70;99.90;;;;;;4970094;28;20235;-61
2022/01/02 05:41:03;;;;;;;17.60;13.57;;;10.70;99.90;;;;;;4970227;28;20240;-60
2022/01/02 05:43:32;;;;;;;17.50;14.00;;;10.70;99.90;;;;;;4970297;28;20238;-61
2022/01/02 05:46:05;;;;;;;17.97;12.80;;;10.70;99.90;;;;;;4971785;28;20240;-61
2022/01/02 05:48:36;;;;;;;14.57;12.43;;;10.70;99.90;;;;;;4971119;28;20271;-60
2022/01/02 05:51:04;;;;;;;17.80;13.23;;;10.70;99.90;;;;;;4971136;28;20327;-61
2022/01/02 05:53:36;;;;;;;16.87;13.10;;;10.70;99.90;;;;;;4973602;28;20657;-61
2022/01/02 05:56:06;;;;;;;18.50;12.87;;;10.70;99.90;;;;;;4973144;28;20255;-61
2022/01/02 05:58:35;;;;;;;17.67;12.30;;;10.80;99.90;;;;;;4973241;28;20620;-61
2022/01/02 06:01:04;;;;;;;17.87;13.80;;;10.80;99.90;;;;;;4973139;28;20232;-61
2022/01/02 06:03:33;;;;;;;19.83;12.83;;;10.90;99.90;;;;;;4973120;28;20299;-62
2022/01/02 06:06:04;;;;;;;16.90;12.50;;;10.90;99.90;;;;;;4972871;28;20266;-61
2022/01/02 06:08:33;;;;;;;19.37;13.30;;;10.90;99.90;;;;;;4972902;28;20346;-61
2022/01/02 06:11:08;;;;;;;18.70;12.47;;;10.90;99.90;;;;;;4973510;28;20235;-61
2022/01/02 06:13:40;;;;;;;18.73;11.57;;;10.90;99.90;;;;;;4974758;28;20267;-61
2022/01/02 06:16:09;;;;;;;15.73;12.27;;;10.90;99.90;;;;;;4972952;28;20274;-61
2022/01/02 06:18:37;;;;;;;17.17;11.97;;;10.90;99.90;;;;;;4968483;28;20242;-61
2022/01/02 06:21:11;;;;;;;17.33;11.97;;;10.90;99.90;;;;;;4967182;28;20259;-61
2022/01/02 06:23:40;;;;;;;14.63;11.77;;;10.90;99.90;;;;;;4965518;28;20689;-61
2022/01/02 06:26:09;;;;;;;19.07;11.37;;;10.90;99.90;;;;;;4973058;28;20275;-61
2022/01/02 06:28:38;;;;;;;15.03;11.37;;;10.90;99.90;;;;;;4972870;28;20697;-61
2022/01/02 06:31:06;;;;;;;14.30;11.27;;;10.90;99.90;;;;;;4972717;28;20254;-61
2022/01/02 06:33:42;;;;;;;18.34;11.41;;;10.90;99.90;;;;;;4826872;28;10000919;-62
2022/01/02 06:36:10;;;;;;;15.30;12.07;;;10.90;99.90;;;;;;682925;28;10002043;-61
2022/01/02 06:38:41;;;;;;;20.13;12.87;;;10.90;99.90;;;;;;4974399;28;20643;-61
2022/01/02 06:41:12;;;;;;;21.87;13.07;;;11.00;99.90;;;;;;4974401;28;20268;-61
2022/01/02 06:43:41;;;;;;;21.63;12.93;;;10.90;99.90;;;;;;4974066;28;20639;-61
2022/01/02 06:46:12;;;;;;;17.43;12.80;;;11.00;99.90;;;;;;4974097;28;20712;-61
2022/01/02 06:48:43;;;;;;;17.47;12.63;;;11.00;99.90;;;;;;4974105;28;20322;-61
2022/01/02 06:51:12;;;;;;;20.53;13.47;;;11.00;99.90;;;;;;4972022;28;20275;-61
2022/01/02 06:53:40;;;;;;;18.10;14.00;;;11.00;99.90;;;;;;4965092;28;20244;-61
2022/01/02 06:56:08;;;;;;;21.37;14.03;;;11.00;99.90;;;;;;4973476;28;20245;-61
2022/01/02 06:58:39;;;;;;;19.57;13.90;;;10.90;99.90;;;;;;4973905;28;20319;-61
2022/01/02 07:01:12;;;;;;;21.43;13.23;;;11.00;99.90;;;;;;4971743;28;20317;-61
2022/01/02 07:03:40;;;;;;;20.20;14.07;;;11.10;99.90;;;;;;4970135;28;20475;-61
2022/01/02 07:06:11;;;;;;;21.93;13.83;;;11.10;99.90;;;;;;4971902;28;20243;-61
2022/01/02 07:08:40;;;;;;;21.03;13.53;;;11.10;99.90;;;;;;4964429;28;20597;-60
2022/01/02 07:11:08;;;;;;;17.13;13.30;;;11.10;99.90;;;;;;4973256;28;20237;-61
2022/01/02 07:13:40;;;;;;;21.83;12.73;;;11.00;99.90;;;;;;4973410;28;20763;-61
2022/01/02 07:16:08;;;;;;;21.97;12.63;;;11.00;99.90;;;;;;4973249;28;20244;-61
2022/01/02 07:18:36;;;;;;;21.03;12.07;;;11.10;99.90;;;;;;4972486;28;20262;-61
2022/01/02 07:21:04;;;;;;;22.20;11.90;;;11.10;99.90;;;;;;4971294;28;20237;-61
2022/01/02 07:23:35;;;;;;;19.17;12.23;;;11.10;99.90;;;;;;4959943;28;20249;-61
2022/01/02 07:26:03;;;;;;;18.13;11.80;;;11.10;99.90;;;;;;4968841;28;20240;-61
2022/01/02 07:28:33;;;;;;;20.37;12.57;;;11.10;99.90;;;;;;4973089;28;20235;-61
2022/01/02 07:31:05;;;;;;;21.30;12.43;;;11.10;99.90;;;;;;4973078;28;20331;-61
2022/01/02 07:33:33;;;;;;;21.53;12.07;;;11.20;99.90;;;;;;4972998;28;20774;-61
2022/01/02 07:36:01;;;;;;;19.50;11.50;;;11.10;99.90;;;;;;4973108;28;20240;-60
2022/01/02 07:38:34;;;;;;;21.17;10.70;;;11.20;99.90;;;;;;4973225;28;20243;-61
2022/01/02 07:41:03;;;;;;;18.87;10.63;;;11.20;99.90;;;;;;4970694;28;20733;-61
2022/01/02 07:43:31;;;;;;;18.43;10.40;;;11.20;99.90;;;;;;4972026;28;20263;-61
2022/01/02 07:45:59;;;;;;;20.93;11.07;;;11.30;99.90;;;;;;4972995;28;20248;-61
2022/01/02 07:48:28;;;;;;;17.10;10.20;;;11.20;99.90;;;;;;4972317;28;20732;-61
2022/01/02 07:50:56;;;;;;;17.40;10.50;;;11.30;99.90;;;;;;4971505;28;20287;-61
2022/01/02 07:53:31;;;;;;;19.10;10.47;;;11.20;99.90;;;;;;4971152;28;20256;-61
2022/01/02 07:55:59;;;;;;;21.27;10.40;;;11.20;99.90;;;;;;4966834;28;20793;-61
2022/01/02 07:58:27;;;;;;;15.73;10.53;;;11.20;99.90;;;;;;4972185;28;20249;-61
2022/01/02 08:00:55;;;;;;;21.17;10.83;;;11.30;99.90;;;;;;4971340;28;20238;-61
2022/01/02 08:03:23;;;;;;;19.27;10.20;;;11.20;99.90;;;;;;4971240;28;20323;-61
2022/01/02 08:05:53;;;;;;;13.27;9.73;;;11.10;99.90;;;;;;4972701;28;20245;-61
2022/01/02 08:08:21;;;;;;;15.20;9.97;;;11.20;99.90;;;;;;4972314;28;20261;-61
2022/01/02 08:10:49;;;;;;;18.57;9.80;;;11.20;99.90;;;;;;4972607;28;20292;-61
2022/01/02 08:13:17;;;;;;;19.60;10.27;;;11.20;99.90;;;;;;4971894;28;20243;-61
2022/01/02 08:15:48;;;;;;;13.27;10.07;;;11.20;99.90;;;;;;4972065;28;20244;-61
2022/01/02 08:18:16;;;;;;;12.77;9.63;;;11.20;99.90;;;;;;4972660;28;20245;-61
2022/01/02 08:20:45;;;;;;;17.67;10.97;;;11.20;99.90;;;;;;4972200;28;20245;-61
2022/01/02 08:23:15;;;;;;;16.87;10.73;;;11.20;99.90;;;;;;4972454;28;20238;-61
2022/01/02 08:25:44;;;;;;;18.00;9.93;;;11.20;99.90;;;;;;4972269;28;20238;-61
2022/01/02 08:28:12;;;;;;;14.10;10.30;;;11.20;99.90;;;;;;4972387;28;20331;-61
2022/01/02 08:30:43;;;;;;;12.97;9.73;;;11.30;99.90;;;;;;4972094;28;20264;-61
2022/01/02 08:33:14;;;;;;;14.07;9.27;;;11.30;99.90;;;;;;4950526;28;20236;-62
2022/01/02 08:35:42;;;;;;;16.10;8.80;;;11.40;99.90;;;;;;965183;28;10002147;-61
2022/01/02 08:38:10;;;;;;;12.60;8.70;;;11.40;99.90;;;;;;4952985;28;20233;-60
2022/01/02 08:40:41;;;;;;;12.87;7.53;;;11.40;99.90;;;;;;4958824;28;20606;-61
2022/01/02 08:43:12;;;;;;;19.43;8.30;;;11.40;99.90;;;;;;4972184;28;20245;-61
2022/01/02 08:45:46;;;;;;;14.03;7.50;;;11.40;99.90;;;;;;4971862;28;20248;-61
2022/01/02 08:48:16;;;;;;;12.57;7.40;;;11.40;99.90;;;;;;4972181;28;20247;-61
2022/01/02 08:50:44;;;;;;;11.50;6.93;;;11.40;99.90;;;;;;4971858;28;20712;-61
2022/01/02 08:53:12;;;;;;;11.50;6.33;;;11.50;99.90;;;;;;4972162;28;20248;-61
2022/01/02 08:55:42;;;;;;;9.87;6.13;;;11.50;99.90;;;;;;4971862;28;20716;-61
2022/01/02 08:58:10;;;;;;;10.20;6.60;;;11.50;99.90;;;;;;4972192;28;20794;-60
2022/01/02 09:00:38;;;;;;;13.03;6.10;;;11.50;99.90;;;;;;4971891;28;20244;-60
2022/01/02 09:03:06;;;;;;;9.80;6.03;;;11.50;99.90;;;;;;4972108;28;20256;-61
2022/01/02 09:05:38;;;;;;;10.00;5.93;;;11.50;99.90;;;;;;4971675;28;20237;-61
2022/01/02 09:08:06;;;;;;;13.47;6.47;;;11.40;99.90;;;;;;4971766;28;20661;-61
2022/01/02 09:10:34;;;;;;;12.50;6.37;;;11.40;99.90;;;;;;4971585;28;20241;-61
2022/01/02 09:13:03;;;;;;;9.33;5.87;;;11.50;99.90;;;;;;4971972;28;20321;-61
2022/01/02 09:15:32;;;;;;;11.00;5.57;;;11.50;99.90;;;;;;4971647;28;20903;-60
2022/01/02 09:18:03;;;;;;;11.63;6.37;;;11.50;99.90;;;;;;4972044;28;20238;-61
2022/01/02 09:20:31;;;;;;;10.77;5.50;;;11.50;99.90;;;;;;4974002;28;20251;-61
2022/01/02 09:22:59;;;;;;;12.33;6.40;;;11.50;99.90;;;;;;4975878;28;20236;-61
2022/01/02 09:25:29;;;;;;;12.70;5.80;;;11.50;99.90;;;;;;4975756;28;20237;-61
2022/01/02 09:27:57;;;;;;;8.27;5.63;;;11.50;99.90;;;;;;4975515;28;20739;-63
2022/01/02 09:30:27;;;;;;;10.27;5.73;;;11.50;99.90;;;;;;4975630;28;20330;-61
2022/01/02 09:32:55;;;;;;;9.60;6.00;;;11.50;99.90;;;;;;4975854;28;20244;-61
2022/01/02 09:35:24;;;;;;;7.03;5.33;;;11.50;99.90;;;;;;4975744;28;20735;-62
2022/01/02 09:37:54;;;;;;;11.97;5.83;;;11.50;99.90;;;;;;4975584;28;20241;-61
2022/01/02 09:40:26;;;;;;;10.03;5.60;;;11.50;99.90;;;;;;4975601;28;20663;-61
2022/01/02 09:43:00;;;;;;;10.00;5.77;;;11.50;99.90;;;;;;4975212;28;20240;-61
2022/01/02 09:45:33;;;;;;;10.53;5.63;;;11.60;99.90;;;;;;4974942;28;20326;-61
2022/01/02 09:48:04;;;;;;;8.80;5.40;;;11.60;99.90;;;;;;4975443;28;20728;-61
2022/01/02 09:50:44;;;;;;;11.97;5.37;;;11.60;99.90;;;;;;4975118;28;20237;-61
2022/01/02 09:53:12;;;;;;;7.83;4.90;;;11.60;99.90;;;;;;4975341;28;20290;-61
2022/01/02 09:55:43;;;;;;;13.60;5.20;;;11.60;99.90;;;;;;4974798;28;20688;-61
2022/01/02 09:58:12;;;;;;;9.80;5.00;;;11.60;99.90;;;;;;4975372;28;20274;-61
2022/01/02 10:00:45;;;;;;;9.87;4.77;;;11.60;99.90;;;;;;4974854;28;20239;-61
2022/01/02 10:03:15;;;;;;;8.27;5.00;;;11.60;99.90;;;;;;4975075;28;20240;-61
2022/01/02 10:05:55;;;;;;;7.57;4.80;;;11.60;99.90;;;;;;4974614;28;20240;-61
2022/01/02 10:08:25;;;;;;;11.03;5.20;;;11.60;99.90;;;;;;4974496;28;20240;-60
2022/01/02 10:11:01;;;;;;;8.60;5.00;;;11.60;99.90;;;;;;4974932;28;20241;-61
2022/01/02 10:13:46;;;;;;;7.53;4.07;;;11.70;99.90;;;;;;4974509;28;20337;-61
2022/01/02 10:16:30;;;;;;;8.80;4.57;;;11.70;99.90;;;;;;4974847;28;20289;-61
2022/01/02 10:19:00;;;;;;;9.83;4.70;;;11.60;99.90;;;;;;4974711;28;20280;-61
2022/01/02 10:21:30;;;;;;;8.67;4.60;;;11.60;99.90;;;;;;4974535;28;20696;-62
2022/01/02 10:24:21;;;;;;;7.27;4.70;;;11.60;99.90;;;;;;4974713;28;20240;-61
2022/01/02 10:27:09;;;;;;;7.43;4.63;;;11.60;99.90;;;;;;4974575;28;20236;-61
2022/01/02 10:29:47;;;;;;;10.63;5.03;;;11.60;99.90;;;;;;4974212;28;20661;-61
2022/01/02 10:32:34;;;;;;;9.43;4.33;;;11.70;99.90;;;;;;4973844;28;20299;-61
2022/01/02 10:35:16;;;;;;;10.15;4.57;;;11.60;99.90;;;;;;3263580;28;10022774;-61
2022/01/02 10:37:50;;;;;;;9.97;4.67;;;11.60;99.90;;;;;;3257200;28;10001976;-61
2022/01/02 10:40:30;;;;;;;8.47;4.40;;;11.60;99.90;;;;;;4974186;28;20475;-61
2022/01/02 10:43:01;;;;;;;8.20;4.30;;;11.60;99.90;;;;;;4973970;28;20256;-61
2022/01/02 10:45:33;;;;;;;7.93;4.57;;;11.60;99.90;;;;;;4973953;28;20582;-61
2022/01/02 10:48:04;;;;;;;8.87;4.50;;;11.60;99.90;;;;;;4974254;28;20248;-61
2022/01/02 10:50:36;;;;;;;10.47;4.13;;;11.60;99.90;;;;;;4973927;28;20337;-61
2022/01/02 10:53:13;;;;;;;5.23;4.10;;;11.70;99.90;;;;;;4974133;28;20241;-61
2022/01/02 10:55:46;;;;;;;7.10;3.90;;;11.70;99.90;;;;;;4973534;28;20328;-61
2022/01/02 10:58:15;;;;;;;8.70;4.50;;;11.70;99.90;;;;;;4974045;28;20243;-61
2022/01/02 11:00:44;;;;;;;7.20;3.80;;;11.70;99.90;;;;;;4973664;28;20241;-61
2022/01/02 11:03:16;;;;;;;6.37;4.00;;;11.70;99.90;;;;;;4974160;28;20233;-61
2022/01/02 11:05:48;;;;;;;8.10;4.30;;;11.70;99.90;;;;;;4973844;28;20739;-60
2022/01/02 11:08:17;;;;;;;8.23;4.20;;;11.70;99.90;;;;;;4974128;28;20315;-61
2022/01/02 11:10:47;;;;;;;9.30;4.23;;;11.70;99.90;;;;;;4973666;28;20247;-61
2022/01/02 11:13:17;;;;;;;8.23;3.90;;;11.70;99.90;;;;;;4973903;28;20774;-61
2022/01/02 11:15:45;;;;;;;8.07;4.83;;;11.70;99.90;;;;;;4973672;28;20247;-61
2022/01/02 11:18:16;;;;;;;7.57;4.40;;;11.70;99.90;;;;;;4973763;28;20618;-61
2022/01/02 11:20:45;;;;;;;8.90;4.93;;;11.70;99.90;;;;;;4973506;28;20734;-61
2022/01/02 11:23:20;;;;;;;10.03;4.77;;;11.60;99.90;;;;;;4973573;28;20243;-61
2022/01/02 11:26:05;;;;;;;9.03;4.70;;;11.60;99.90;;;;;;4973675;28;20240;-61
2022/01/02 11:28:36;;;;;;;11.00;5.07;;;11.60;99.90;;;;;;4973269;28;20272;-61
2022/01/02 11:31:05;;;;;;;9.40;5.07;;;11.60;99.90;;;;;;4973214;28;20789;-61
2022/01/02 11:33:37;;;;;;;8.67;5.03;;;11.60;99.90;;;;;;4973185;28;20325;-61
2022/01/02 11:36:22;;;;;;;10.60;5.00;;;11.60;99.90;;;;;;4973263;28;20264;-61
2022/01/02 11:39:01;;;;;;;8.57;5.03;;;11.70;99.90;;;;;;4973448;28;20694;-61
2022/01/02 11:41:40;;;;;;;10.70;5.57;;;11.60;99.90;;;;;;4972801;28;20235;-60
2022/01/02 11:44:10;;;;;;;10.20;5.57;;;11.60;99.90;;;;;;4972202;28;20663;-61
2022/01/02 11:46:40;;;;;;;9.53;4.93;;;11.60;99.90;;;;;;4972915;28;20240;-62
2022/01/02 11:49:20;;;;;;;12.60;5.73;;;11.70;99.90;;;;;;4973191;28;20247;-61
2022/01/02 11:52:10;;;;;;;10.53;6.10;;;11.60;99.90;;;;;;4972781;28;20336;-61
2022/01/02 11:54:50;;;;;;;8.80;5.40;;;11.60;99.90;;;;;;4972742;28;20237;-61
2022/01/02 11:57:46;;;;;;;10.83;5.63;;;11.60;99.90;;;;;;4972671;28;20302;-61
2022/01/02 12:00:33;;;;;;;9.20;5.37;;;11.70;99.90;;;;;;4967613;28;20303;-61
2022/01/02 12:03:02;;;;;;;9.03;5.80;;;11.70;99.90;;;;;;4972825;28;20242;-61
2022/01/02 12:05:32;;;;;;;10.40;5.97;;;11.70;99.90;;;;;;4972356;28;20233;-61
2022/01/02 12:08:05;;;;;;;11.77;6.53;;;11.80;99.90;;;;;;4972647;28;20236;-61
2022/01/02 12:10:35;;;;;;;8.43;5.63;;;11.80;99.90;;;;;;4972229;28;20248;-61
2022/01/02 12:13:23;;;;;;;12.10;6.27;;;11.70;99.90;;;;;;4972811;28;20253;-60
2022/01/02 12:16:08;;;;;;;13.20;6.50;;;11.80;99.90;;;;;;4971286;28;20268;-61
2022/01/02 12:18:57;;;;;;;10.63;5.87;;;11.70;99.90;;;;;;4972275;28;20311;-61
2022/01/02 12:21:31;;;;;;;11.27;6.43;;;11.70;99.90;;;;;;4972130;28;20244;-61
2022/01/02 12:24:02;;;;;;;9.67;6.13;;;11.70;99.90;;;;;;4972547;28;20354;-61
2022/01/02 12:26:33;;;;;;;8.50;6.03;;;11.80;99.90;;;;;;4972273;28;20271;-61
2022/01/02 12:29:06;;;;;;;8.33;5.70;;;11.70;99.90;;;;;;4972184;28;20725;-60
2022/01/02 12:31:36;;;;;;;11.57;6.50;;;11.80;99.90;;;;;;4971908;28;20248;-61
2022/01/02 12:34:14;;;;;;;8.88;6.22;;;11.80;99.90;;;;;;3665496;28;10023497;-61
2022/01/02 12:36:46;;;;;;;8.37;6.03;;;11.70;99.90;;;;;;2740889;28;10002032;-60
2022/01/02 12:39:24;;;;;;;11.70;6.83;;;11.70;99.90;;;;;;4972188;28;20572;-60
2022/01/02 12:41:52;;;;;;;10.23;6.00;;;11.80;99.90;;;;;;4971933;28;20240;-61
2022/01/02 12:44:26;;;;;;;11.60;6.27;;;11.80;99.90;;;;;;4972263;28;20252;-60
2022/01/02 12:46:56;;;;;;;10.33;7.10;;;11.80;99.90;;;;;;4972257;28;20319;-61
2022/01/02 12:49:28;;;;;;;7.80;5.50;;;11.70;99.90;;;;;;4972395;28;20307;-61
2022/01/02 12:52:02;;;;;;;10.60;6.23;;;11.80;99.90;;;;;;4969353;28;20315;-60
2022/01/02 12:54:31;;;;;;;10.43;5.73;;;11.70;99.90;;;;;;4971522;28;20265;-61
2022/01/02 12:57:01;;;;;;;7.23;6.07;;;11.80;99.90;;;;;;4971681;28;20247;-60
2022/01/02 12:59:31;;;;;;;8.47;5.60;;;11.80;99.90;;;;;;4972028;28;20275;-61